Time;durP1;ratioP1;P1;durP2;ratioP2;P2;SDS_P1;SDS_P2;PMS_P1;PMS_P2;Temp;Humidity;BMP_temperature;BMP_pressure;BME280_temperature;BME280_humidity;BME280_pressure;Samples;Min_cycle;Max_cycle;Signal;HPM_P1;HPM_P2
2021/11/25 00:02:20;;;;;;;34.30;14.02;;;6.90;99.90;;;;;;5114718;28;20479;-67
2021/11/25 00:04:46;;;;;;;22.77;13.65;;;6.90;99.90;;;;;;5095831;28;20039;-67
2021/11/25 00:07:11;;;;;;;30.48;13.73;;;6.90;99.90;;;;;;5114559;28;20020;-67
2021/11/25 00:09:37;;;;;;;34.53;13.75;;;6.90;99.90;;;;;;5114022;28;20035;-67
2021/11/25 00:12:03;;;;;;;23.75;13.20;;;6.90;99.90;;;;;;5114493;28;20020;-67
2021/11/25 00:14:29;;;;;;;33.63;13.00;;;6.90;99.90;;;;;;5113956;28;20023;-67
2021/11/25 00:16:54;;;;;;;36.22;12.43;;;6.90;99.90;;;;;;5114430;28;20443;-67
2021/11/25 00:19:20;;;;;;;25.85;12.88;;;6.90;99.90;;;;;;5114309;28;20123;-67
2021/11/25 00:21:45;;;;;;;23.73;12.77;;;6.90;99.90;;;;;;5114556;28;20023;-67
2021/11/25 00:24:11;;;;;;;33.95;12.18;;;6.90;99.90;;;;;;5114058;28;20016;-67
2021/11/25 00:26:37;;;;;;;24.23;11.82;;;6.90;99.90;;;;;;5114531;28;20025;-67
2021/11/25 00:29:05;;;;;;;27.90;11.95;;;6.90;99.90;;;;;;5114141;28;20107;-67
2021/11/25 00:31:31;;;;;;;25.30;11.32;;;6.80;99.90;;;;;;5113833;28;20110;-67
2021/11/25 00:33:56;;;;;;;24.50;11.48;;;6.90;99.90;;;;;;5114448;28;20053;-67
2021/11/25 00:36:22;;;;;;;19.25;11.65;;;6.90;99.90;;;;;;5114155;28;20110;-67
2021/11/25 00:38:48;;;;;;;29.23;11.23;;;6.80;99.90;;;;;;5113855;28;20027;-67
2021/11/25 00:41:15;;;;;;;25.55;11.00;;;6.90;99.90;;;;;;5114311;28;20023;-67
2021/11/25 00:43:41;;;;;;;33.08;11.70;;;6.80;99.90;;;;;;5113980;28;20027;-68
2021/11/25 00:46:07;;;;;;;20.60;10.70;;;6.80;99.90;;;;;;5113427;28;20026;-67
2021/11/25 00:48:32;;;;;;;25.17;11.05;;;6.80;99.90;;;;;;5113853;28;20416;-67
2021/11/25 00:50:58;;;;;;;35.47;10.40;;;6.80;99.90;;;;;;5113500;28;20016;-67
2021/11/25 00:53:24;;;;;;;21.92;8.15;;;6.80;99.90;;;;;;5113697;28;20085;-67
2021/11/25 00:55:50;;;;;;;28.75;10.30;;;6.80;99.90;;;;;;5113293;28;20386;-67
2021/11/25 00:58:17;;;;;;;25.75;9.35;;;6.80;99.90;;;;;;5113994;28;20047;-67
2021/11/25 01:00:42;;;;;;;16.75;9.13;;;6.70;99.90;;;;;;5113960;28;20015;-67
2021/11/25 01:03:08;;;;;;;23.83;9.15;;;6.70;99.90;;;;;;5114090;28;20016;-68
2021/11/25 01:05:34;;;;;;;22.00;9.50;;;6.70;99.90;;;;;;5114224;28;20024;-67
2021/11/25 01:08:00;;;;;;;34.03;10.90;;;6.70;99.90;;;;;;5112923;28;20119;-67
2021/11/25 01:10:25;;;;;;;22.17;9.93;;;6.70;99.90;;;;;;5113916;28;20058;-67
2021/11/25 01:12:53;;;;;;;24.00;9.77;;;6.70;99.90;;;;;;5113656;28;20028;-67
2021/11/25 01:15:29;;;;;;;27.40;9.73;;;6.70;99.90;;;;;;5113873;28;20475;-67
2021/11/25 01:18:15;;;;;;;24.38;9.80;;;6.70;99.90;;;;;;5113766;28;20432;-68
2021/11/25 01:20:43;;;;;;;22.85;9.88;;;6.70;99.90;;;;;;5113195;28;20027;-67
2021/11/25 01:23:13;;;;;;;27.38;12.20;;;6.70;99.90;;;;;;5113557;28;20024;-67
2021/11/25 01:25:40;;;;;;;22.85;11.20;;;6.70;99.90;;;;;;5113707;28;20023;-67
2021/11/25 01:28:12;;;;;;;33.60;12.20;;;6.70;99.90;;;;;;5112849;28;20382;-67
2021/11/25 01:30:38;;;;;;;29.13;11.90;;;6.70;99.90;;;;;;5113703;28;20035;-67
2021/11/25 01:33:04;;;;;;;29.55;12.13;;;6.70;99.90;;;;;;5113709;28;20110;-67
2021/11/25 01:35:29;;;;;;;21.80;12.38;;;6.70;99.90;;;;;;5113369;28;20086;-67
2021/11/25 01:37:55;;;;;;;28.80;13.60;;;6.70;99.90;;;;;;5112947;28;20072;-67
2021/11/25 01:40:21;;;;;;;26.42;13.38;;;6.70;99.90;;;;;;5113270;28;20031;-67
2021/11/25 01:42:47;;;;;;;26.58;14.70;;;6.70;99.90;;;;;;5113635;28;20110;-67
2021/11/25 01:45:13;;;;;;;26.52;14.93;;;6.70;99.90;;;;;;5113304;28;20028;-67
2021/11/25 01:47:44;;;;;;;38.88;16.45;;;6.70;99.90;;;;;;5113516;28;20026;-67
2021/11/25 01:50:12;;;;;;;42.03;16.60;;;6.70;99.90;;;;;;5112730;28;20023;-66
2021/11/25 01:52:38;;;;;;;37.70;14.63;;;6.70;99.90;;;;;;5113215;28;20016;-67
2021/11/25 01:55:05;;;;;;;32.60;14.07;;;6.70;99.90;;;;;;5113509;28;20064;-67
2021/11/25 01:57:30;;;;;;;35.80;14.00;;;6.70;99.90;;;;;;5113136;28;20028;-67
2021/11/25 01:59:56;;;;;;;34.78;16.05;;;6.70;99.90;;;;;;5113097;28;20032;-67
2021/11/25 02:02:22;;;;;;;34.60;15.95;;;6.70;99.90;;;;;;5112933;28;20047;-67
2021/11/25 02:04:48;;;;;;;36.15;14.98;;;6.70;99.90;;;;;;5117246;28;20024;-67
2021/11/25 02:07:13;;;;;;;33.63;14.65;;;6.70;99.90;;;;;;5116934;28;20073;-67
2021/11/25 02:09:39;;;;;;;30.13;15.40;;;6.60;99.90;;;;;;5116685;28;20108;-67
2021/11/25 02:12:05;;;;;;;29.33;14.57;;;6.60;99.90;;;;;;5117096;28;20057;-67
2021/11/25 02:14:30;;;;;;;35.67;17.25;;;6.60;99.90;;;;;;5117001;28;20110;-67
2021/11/25 02:16:56;;;;;;;42.58;19.92;;;6.60;99.90;;;;;;5115973;28;20106;-67
2021/11/25 02:19:22;;;;;;;52.63;21.58;;;6.60;99.90;;;;;;5116775;28;20019;-67
2021/11/25 02:21:48;;;;;;;51.42;21.25;;;6.70;99.90;;;;;;5116693;28;20360;-67
2021/11/25 02:24:14;;;;;;;43.30;23.55;;;6.70;99.90;;;;;;5116156;28;20028;-67
2021/11/25 02:26:40;;;;;;;52.33;24.85;;;6.70;99.90;;;;;;5116932;28;20081;-67
2021/11/25 02:29:05;;;;;;;58.55;25.42;;;6.80;99.90;;;;;;5116449;28;20019;-67
2021/11/25 02:31:31;;;;;;;54.67;24.98;;;6.80;99.90;;;;;;5116782;28;20106;-67
2021/11/25 02:33:57;;;;;;;53.65;26.40;;;6.80;99.90;;;;;;5116461;28;20083;-67
2021/11/25 02:36:24;;;;;;;64.32;26.70;;;6.80;99.90;;;;;;5116698;28;20102;-67
2021/11/25 02:38:50;;;;;;;56.10;28.85;;;6.80;99.90;;;;;;5115911;28;20031;-67
2021/11/25 02:41:16;;;;;;;55.50;26.92;;;6.80;99.90;;;;;;5116308;28;20024;-67
2021/11/25 02:43:42;;;;;;;55.85;28.55;;;6.70;99.90;;;;;;5116216;28;20417;-67
2021/11/25 02:46:14;;;;;;;53.90;26.25;;;6.70;99.90;;;;;;5116536;28;20527;-67
2021/11/25 02:48:50;;;;;;;58.50;28.60;;;6.70;99.90;;;;;;5115812;28;20027;-67
2021/11/25 02:51:22;;;;;;;55.08;29.33;;;6.80;99.90;;;;;;5116416;28;20032;-67
2021/11/25 02:53:48;;;;;;;60.40;29.92;;;6.80;99.90;;;;;;5116143;28;20027;-67
2021/11/25 02:56:17;;;;;;;64.03;28.88;;;6.80;99.90;;;;;;5116293;28;20026;-67
2021/11/25 02:58:44;;;;;;;52.70;30.52;;;6.80;99.90;;;;;;5115202;28;20106;-67
2021/11/25 03:01:11;;;;;;;59.35;30.95;;;6.70;99.90;;;;;;5116227;28;20455;-67
2021/11/25 03:03:37;;;;;;;52.53;28.48;;;6.80;99.90;;;;;;5115855;28;20538;-67
2021/11/25 03:06:03;;;;;;;57.88;32.28;;;6.70;99.90;;;;;;5115870;28;20028;-67
2021/11/25 03:08:28;;;;;;;54.72;28.30;;;6.80;99.90;;;;;;5115627;28;20473;-67
2021/11/25 03:11:00;;;;;;;60.58;29.77;;;6.70;99.90;;;;;;5115733;28;20034;-67
2021/11/25 03:13:27;;;;;;;58.05;28.23;;;6.70;99.90;;;;;;5115431;28;20035;-67
2021/11/25 03:15:54;;;;;;;67.93;29.65;;;6.70;99.90;;;;;;5115407;28;20394;-67
2021/11/25 03:18:20;;;;;;;57.13;28.45;;;6.80;99.90;;;;;;5115544;28;20088;-67
2021/11/25 03:20:48;;;;;;;54.10;27.67;;;6.80;99.90;;;;;;5115787;28;20363;-67
2021/11/25 03:23:16;;;;;;;54.05;27.25;;;6.80;99.90;;;;;;5115068;28;20015;-66
2021/11/25 03:25:43;;;;;;;62.15;27.25;;;6.80;99.90;;;;;;5115357;28;20069;-67
2021/11/25 03:28:09;;;;;;;49.97;25.85;;;6.70;99.90;;;;;;5115788;28;20019;-67
2021/11/25 03:30:36;;;;;;;50.85;26.75;;;6.70;99.90;;;;;;5115324;28;20031;-67
2021/11/25 03:33:03;;;;;;;56.45;28.20;;;6.80;99.90;;;;;;5115620;28;20027;-67
2021/11/25 03:35:29;;;;;;;59.13;27.70;;;6.70;99.90;;;;;;5114974;28;20023;-67
2021/11/25 03:37:55;;;;;;;51.13;26.90;;;6.70;99.90;;;;;;5115386;28;20143;-67
2021/11/25 03:40:20;;;;;;;55.88;27.55;;;6.70;99.90;;;;;;5115293;28;20471;-67
2021/11/25 03:42:46;;;;;;;47.85;24.98;;;6.70;99.90;;;;;;5115114;28;20027;-67
2021/11/25 03:45:11;;;;;;;51.08;27.33;;;6.70;99.90;;;;;;5115350;28;20024;-67
2021/11/25 03:47:37;;;;;;;58.78;29.38;;;6.70;99.90;;;;;;5114359;28;20106;-68
2021/11/25 03:50:04;;;;;;;62.15;29.85;;;6.70;99.90;;;;;;5114984;28;20094;-67
2021/11/25 03:52:29;;;;;;;56.50;30.38;;;6.60;99.90;;;;;;5115146;28;20115;-67
2021/11/25 03:54:55;;;;;;;52.63;28.73;;;6.60;99.90;;;;;;5114928;28;20066;-67
2021/11/25 03:57:22;;;;;;;70.32;32.08;;;6.60;99.90;;;;;;5114831;28;20028;-67
2021/11/25 03:59:48;;;;;;;71.45;31.17;;;6.60;99.90;;;;;;5114569;28;20024;-67
2021/11/25 04:02:14;;;;;;;67.63;29.60;;;6.60;99.90;;;;;;5114255;28;20509;-67
2021/11/25 04:04:40;;;;;;;79.20;30.55;;;6.50;99.90;;;;;;5114797;28;20032;-67
2021/11/25 04:07:05;;;;;;;76.97;33.10;;;6.50;99.90;;;;;;5114629;28;20443;-67
2021/11/25 04:09:31;;;;;;;76.43;33.17;;;6.50;99.90;;;;;;5113883;28;20035;-67
2021/11/25 04:11:56;;;;;;;84.93;33.78;;;6.50;99.90;;;;;;5114530;28;20028;-67
2021/11/25 04:14:22;;;;;;;91.55;35.05;;;6.50;99.90;;;;;;5114528;28;20036;-67
2021/11/25 04:16:48;;;;;;;85.70;34.65;;;6.50;99.90;;;;;;5113917;28;20392;-67
2021/11/25 04:19:13;;;;;;;77.45;33.72;;;6.50;99.90;;;;;;5114375;28;20028;-67
2021/11/25 04:21:39;;;;;;;99.63;35.05;;;6.50;99.90;;;;;;5114412;28;20028;-67
2021/11/25 04:24:04;;;;;;;91.20;36.13;;;6.50;99.90;;;;;;5114237;28;20111;-67
2021/11/25 04:26:30;;;;;;;92.53;35.80;;;6.50;99.90;;;;;;5113722;28;20024;-67
2021/11/25 04:28:56;;;;;;;97.65;37.28;;;6.50;99.90;;;;;;5113616;28;20081;-67
2021/11/25 04:36:55;;;;;;;104.22;36.33;;;6.50;99.90;;;;;;5114376;28;20035;-67
2021/11/25 04:39:21;;;;;;;89.45;35.97;;;6.50;99.90;;;;;;5113644;28;20031;-67
2021/11/25 04:41:46;;;;;;;110.00;39.75;;;6.50;99.90;;;;;;5114045;28;20390;-67
2021/11/25 04:44:12;;;;;;;97.35;35.30;;;6.50;99.90;;;;;;5114238;28;20424;-67
2021/11/25 04:46:38;;;;;;;112.18;39.30;;;6.50;99.90;;;;;;5114255;28;20051;-67
2021/11/25 04:49:04;;;;;;;114.93;38.38;;;6.60;99.90;;;;;;5113647;28;20451;-67
2021/11/25 04:51:31;;;;;;;111.35;39.38;;;6.60;99.90;;;;;;5113621;28;20027;-67
2021/11/25 04:53:57;;;;;;;109.95;38.50;;;6.60;99.90;;;;;;5114126;28;20489;-67
2021/11/25 04:56:22;;;;;;;103.30;37.58;;;6.60;99.90;;;;;;5113807;28;20115;-67
2021/11/25 04:58:48;;;;;;;109.25;39.33;;;6.60;99.90;;;;;;5113332;28;20112;-66
2021/11/25 05:01:14;;;;;;;110.38;37.45;;;6.60;99.90;;;;;;5114051;28;20117;-67
2021/11/25 05:03:39;;;;;;;119.13;40.38;;;6.60;99.90;;;;;;5113718;28;20019;-67
2021/11/25 05:06:05;;;;;;;126.15;41.70;;;6.70;99.90;;;;;;5113968;28;20023;-67
2021/11/25 05:08:31;;;;;;;129.15;41.85;;;6.60;99.90;;;;;;5113922;28;20118;-67
2021/11/25 05:10:56;;;;;;;107.43;39.70;;;6.60;99.90;;;;;;5113279;28;20111;-67
2021/11/25 05:13:22;;;;;;;130.70;43.05;;;6.70;99.90;;;;;;5113635;28;20027;-67
2021/11/25 05:15:47;;;;;;;113.20;38.63;;;6.70;99.90;;;;;;5113831;28;20394;-67
2021/11/25 05:18:13;;;;;;;131.13;42.40;;;6.70;99.90;;;;;;5113781;28;20028;-67
2021/11/25 05:20:39;;;;;;;139.15;40.78;;;6.70;99.90;;;;;;5095306;28;20453;-67
2021/11/25 05:23:05;;;;;;;148.98;44.92;;;6.70;99.90;;;;;;5113308;28;20024;-67
2021/11/25 05:25:31;;;;;;;159.13;46.30;;;6.70;99.90;;;;;;5113762;28;20038;-67
2021/11/25 05:27:57;;;;;;;136.40;43.83;;;6.70;99.90;;;;;;5113696;28;20381;-67
2021/11/25 05:30:23;;;;;;;139.70;44.83;;;6.80;99.90;;;;;;5113444;28;20023;-67
2021/11/25 05:32:48;;;;;;;147.20;45.70;;;6.80;99.90;;;;;;5113723;28;20076;-67
2021/11/25 05:35:16;;;;;;;140.82;44.58;;;6.80;99.90;;;;;;5112905;28;20097;-67
2021/11/25 05:37:42;;;;;;;136.23;41.30;;;6.80;99.90;;;;;;5114367;28;20118;-67
2021/11/25 05:40:09;;;;;;;178.55;51.53;;;6.80;99.90;;;;;;5117634;28;20103;-67
2021/11/25 05:42:36;;;;;;;146.82;47.60;;;6.80;99.90;;;;;;5117133;28;20473;-67
2021/11/25 05:45:06;;;;;;;150.77;45.28;;;6.90;99.90;;;;;;5117418;28;20027;-67
2021/11/25 05:47:34;;;;;;;155.27;45.92;;;6.90;99.90;;;;;;5117204;28;20383;-67
2021/11/25 05:50:04;;;;;;;137.60;44.92;;;7.00;99.90;;;;;;5117228;28;20030;-67
2021/11/25 05:52:30;;;;;;;157.13;50.75;;;6.90;99.90;;;;;;5117311;28;20475;-67
2021/11/25 05:54:56;;;;;;;153.35;48.35;;;6.90;99.90;;;;;;5117436;28;20035;-67
2021/11/25 05:57:22;;;;;;;176.13;49.42;;;6.90;99.90;;;;;;5116656;28;20031;-67
2021/11/25 05:59:47;;;;;;;172.50;46.58;;;7.00;99.90;;;;;;5116988;28;20038;-67
2021/11/25 06:02:14;;;;;;;161.38;47.10;;;7.00;99.90;;;;;;5117160;28;20020;-67
2021/11/25 06:04:40;;;;;;;169.98;50.53;;;7.00;99.90;;;;;;5117008;28;20055;-67
2021/11/25 06:07:05;;;;;;;171.27;49.80;;;7.00;99.90;;;;;;5117220;28;20024;-67
2021/11/25 06:09:31;;;;;;;166.65;48.05;;;7.00;99.90;;;;;;5116278;28;20043;-67
2021/11/25 06:11:56;;;;;;;163.55;49.40;;;7.10;99.90;;;;;;5116908;28;20024;-67
2021/11/25 06:14:22;;;;;;;173.50;50.45;;;7.00;99.90;;;;;;5117168;28;20031;-67
2021/11/25 06:16:48;;;;;;;182.90;52.25;;;7.10;99.90;;;;;;5117105;28;20028;-67
2021/11/25 06:19:13;;;;;;;165.73;46.63;;;7.00;99.90;;;;;;5116810;28;20015;-67
2021/11/25 06:21:39;;;;;;;184.38;51.33;;;7.10;99.90;;;;;;5098088;28;20031;-67
2021/11/25 06:24:04;;;;;;;144.38;48.63;;;7.10;99.90;;;;;;5116955;28;20039;-67
2021/11/25 06:26:30;;;;;;;176.63;52.40;;;7.20;99.90;;;;;;5116923;28;20028;-67
2021/11/25 06:28:56;;;;;;;161.38;49.88;;;7.20;99.90;;;;;;5116627;28;20433;-67
2021/11/25 06:31:22;;;;;;;169.13;48.50;;;7.20;99.90;;;;;;5116831;28;20020;-67
2021/11/25 06:33:48;;;;;;;165.20;47.58;;;7.20;99.90;;;;;;5116442;28;20026;-67
2021/11/25 06:36:14;;;;;;;174.40;49.05;;;7.30;99.90;;;;;;5115868;28;20187;-67
2021/11/25 06:38:41;;;;;;;159.75;47.63;;;7.30;99.90;;;;;;5116502;28;20015;-67
2021/11/25 06:41:07;;;;;;;165.35;49.72;;;7.30;99.90;;;;;;5116578;28;20077;-67
2021/11/25 06:43:34;;;;;;;171.50;51.60;;;7.30;99.90;;;;;;5116596;28;20026;-67
2021/11/25 06:46:00;;;;;;;182.68;53.28;;;7.40;99.90;;;;;;5116061;28;20024;-67
2021/11/25 06:48:26;;;;;;;201.40;54.17;;;7.30;99.90;;;;;;5116148;28;20027;-68
2021/11/25 06:50:51;;;;;;;186.35;53.17;;;7.30;99.90;;;;;;5115166;28;20058;-68
2021/11/25 06:53:17;;;;;;;186.20;54.15;;;7.30;99.90;;;;;;5116393;28;20031;-68
2021/11/25 06:55:43;;;;;;;193.32;52.90;;;7.30;99.90;;;;;;5115542;28;20032;-67
2021/11/25 06:58:09;;;;;;;167.13;51.38;;;7.30;99.90;;;;;;5116202;28;20019;-67
2021/11/25 07:00:35;;;;;;;191.45;52.33;;;7.30;99.90;;;;;;5115772;28;20424;-67
2021/11/25 07:03:00;;;;;;;167.77;49.92;;;7.30;99.90;;;;;;5115802;28;20016;-67
2021/11/25 07:05:27;;;;;;;177.82;49.40;;;7.30;99.90;;;;;;5116090;28;20123;-67
2021/11/25 07:07:54;;;;;;;162.82;50.13;;;7.30;99.90;;;;;;5116171;28;20023;-67
2021/11/25 07:10:19;;;;;;;147.25;45.88;;;7.30;99.90;;;;;;5115315;28;20088;-67
2021/11/25 07:12:46;;;;;;;156.85;45.03;;;7.30;99.90;;;;;;5115746;28;20024;-68
2021/11/25 07:15:14;;;;;;;131.32;37.30;;;7.20;99.90;;;;;;5115922;28;20107;-68
2021/11/25 07:17:40;;;;;;;125.78;35.92;;;7.30;99.90;;;;;;5116695;28;20030;-68
2021/11/25 07:20:06;;;;;;;87.00;27.83;;;7.30;99.90;;;;;;5115751;28;20024;-67
2021/11/25 07:22:33;;;;;;;73.25;22.73;;;7.30;99.90;;;;;;5115267;28;20020;-67
2021/11/25 07:25:00;;;;;;;81.60;21.80;;;7.30;99.90;;;;;;5115720;28;20102;-67
2021/11/25 07:27:25;;;;;;;51.95;17.45;;;7.30;99.90;;;;;;5115387;28;20019;-67
2021/11/25 07:29:52;;;;;;;50.47;14.02;;;7.30;99.90;;;;;;5115289;28;20031;-68
2021/11/25 07:32:18;;;;;;;43.20;13.57;;;7.40;99.90;;;;;;5115637;28;20032;-68
2021/11/25 07:34:44;;;;;;;33.90;10.32;;;7.40;99.90;;;;;;5098454;28;20036;-67
2021/11/25 07:37:09;;;;;;;35.28;9.30;;;7.40;99.90;;;;;;5096834;28;20034;-67
2021/11/25 07:39:35;;;;;;;40.53;8.65;;;7.40;99.90;;;;;;5114820;28;20028;-67
2021/11/25 07:42:01;;;;;;;29.55;8.05;;;7.50;99.90;;;;;;5115452;28;20058;-67
2021/11/25 07:44:27;;;;;;;29.27;9.55;;;7.50;99.90;;;;;;5097440;28;20024;-68
2021/11/25 07:46:53;;;;;;;27.98;11.07;;;7.50;99.90;;;;;;5113374;28;20099;-68
2021/11/25 07:49:20;;;;;;;30.13;9.15;;;7.50;99.90;;;;;;5100592;28;20034;-68
2021/11/25 07:51:46;;;;;;;48.75;11.00;;;7.50;99.90;;;;;;5094850;28;20095;-68
2021/11/25 07:54:12;;;;;;;27.42;9.50;;;7.60;99.90;;;;;;5094509;28;20028;-68
2021/11/25 07:56:38;;;;;;;25.13;5.53;;;7.60;99.90;;;;;;5100236;28;20028;-67
2021/11/25 07:59:04;;;;;;;19.75;4.35;;;7.60;99.90;;;;;;5114794;28;20028;-67
2021/11/25 08:01:32;;;;;;;21.05;4.00;;;7.60;99.90;;;;;;5111133;28;20428;-67
2021/11/25 08:03:57;;;;;;;15.48;2.42;;;7.60;99.90;;;;;;5103253;28;20494;-67
2021/11/25 08:06:23;;;;;;;13.93;2.72;;;7.60;99.90;;;;;;5114729;28;20028;-67
2021/11/25 08:08:49;;;;;;;5.93;2.65;;;7.50;99.90;;;;;;5113222;28;20043;-67
2021/11/25 08:11:14;;;;;;;14.73;2.80;;;7.40;99.90;;;;;;5094206;28;20016;-67
2021/11/25 08:13:40;;;;;;;11.13;2.25;;;7.40;99.90;;;;;;5094473;28;20103;-67
2021/11/25 08:16:05;;;;;;;11.07;2.30;;;7.40;99.90;;;;;;5094168;28;20475;-67
2021/11/25 08:18:31;;;;;;;15.77;2.25;;;7.30;99.90;;;;;;5093964;28;20024;-67
2021/11/25 08:20:56;;;;;;;20.85;2.97;;;7.20;99.90;;;;;;5093517;28;20024;-67
2021/11/25 08:23:22;;;;;;;14.98;2.08;;;7.20;99.90;;;;;;5094036;28;20035;-67
2021/11/25 08:25:49;;;;;;;10.40;2.25;;;7.20;99.90;;;;;;5094502;28;20588;-67
2021/11/25 08:28:16;;;;;;;12.13;2.28;;;7.20;99.90;;;;;;5096070;28;20371;-67
2021/11/25 08:30:42;;;;;;;10.63;2.28;;;7.20;99.90;;;;;;5093591;28;20035;-67
2021/11/25 08:33:08;;;;;;;16.88;2.28;;;7.20;99.90;;;;;;5095688;28;20020;-67
2021/11/25 08:35:33;;;;;;;8.32;1.98;;;7.20;99.90;;;;;;5114188;28;20031;-67
2021/11/25 08:38:00;;;;;;;8.80;1.92;;;7.20;99.90;;;;;;5112668;28;20027;-67
2021/11/25 08:40:26;;;;;;;10.18;2.22;;;7.10;99.90;;;;;;5095798;28;20027;-67
2021/11/25 08:42:54;;;;;;;25.73;2.53;;;7.10;99.90;;;;;;5110664;28;20027;-67
2021/11/25 08:45:21;;;;;;;30.17;2.70;;;7.10;99.90;;;;;;5095268;28;20100;-67
2021/11/25 08:47:47;;;;;;;9.80;2.05;;;7.00;99.90;;;;;;5104260;28;20051;-67
2021/11/25 08:50:13;;;;;;;16.92;1.88;;;7.00;99.90;;;;;;5102517;28;20487;-67
2021/11/25 08:52:39;;;;;;;19.63;2.95;;;7.00;99.90;;;;;;5103318;28;20031;-67
2021/11/25 08:55:06;;;;;;;18.63;4.20;;;7.00;99.90;;;;;;5091882;28;20039;-66
2021/11/25 08:57:31;;;;;;;19.25;2.83;;;7.00;99.90;;;;;;5095784;28;20106;-67
2021/11/25 08:59:57;;;;;;;19.88;3.10;;;7.00;99.90;;;;;;5104049;28;20106;-66
2021/11/25 09:02:23;;;;;;;16.42;2.05;;;7.10;99.90;;;;;;5107028;28;20073;-67
2021/11/25 09:04:49;;;;;;;13.77;1.90;;;7.10;99.90;;;;;;5106886;28;20024;-67
2021/11/25 09:07:14;;;;;;;12.85;1.60;;;7.10;99.90;;;;;;5095729;28;20115;-67
2021/11/25 09:09:40;;;;;;;7.57;1.27;;;7.10;99.90;;;;;;5104596;28;20122;-67
2021/11/25 09:12:06;;;;;;;15.75;1.55;;;7.10;99.90;;;;;;5092926;28;20024;-67
2021/11/25 09:14:32;;;;;;;13.15;1.80;;;7.20;99.90;;;;;;5093451;28;20487;-67
2021/11/25 09:16:57;;;;;;;15.73;1.60;;;7.20;99.90;;;;;;5093180;28;20061;-67
2021/11/25 09:19:23;;;;;;;20.08;2.28;;;7.20;99.90;;;;;;5093333;28;20471;-67
2021/11/25 09:21:49;;;;;;;12.45;1.80;;;7.10;99.90;;;;;;5093383;28;20502;-67
2021/11/25 09:24:15;;;;;;;25.50;2.95;;;7.10;99.90;;;;;;5092591;28;20372;-67
2021/11/25 09:26:40;;;;;;;9.88;1.67;;;7.20;99.90;;;;;;5093388;28;20016;-67
2021/11/25 09:29:08;;;;;;;18.98;2.47;;;7.20;99.90;;;;;;5093179;28;20387;-67
2021/11/25 09:31:34;;;;;;;19.88;2.13;;;7.20;99.90;;;;;;5093106;28;20035;-67
2021/11/25 09:34:01;;;;;;;22.65;2.65;;;7.30;99.90;;;;;;5092606;28;20117;-67
2021/11/25 09:36:29;;;;;;;11.85;1.85;;;7.30;99.90;;;;;;5093069;28;20032;-67
2021/11/25 09:38:54;;;;;;;27.10;2.45;;;7.20;99.90;;;;;;5110181;28;20038;-67
2021/11/25 09:41:20;;;;;;;20.63;2.95;;;7.20;99.90;;;;;;5113962;28;20019;-67
2021/11/25 09:43:47;;;;;;;29.00;3.65;;;7.20;99.90;;;;;;5113399;28;20451;-67
2021/11/25 09:46:14;;;;;;;21.88;3.88;;;7.30;99.90;;;;;;5113094;28;20024;-67
2021/11/25 09:48:40;;;;;;;14.10;2.00;;;7.30;99.90;;;;;;5095967;28;20031;-67
2021/11/25 09:51:08;;;;;;;24.80;2.25;;;7.30;99.90;;;;;;5093226;28;20024;-67
2021/11/25 09:53:36;;;;;;;26.08;4.30;;;7.40;99.90;;;;;;5095123;28;20065;-67
2021/11/25 09:56:03;;;;;;;30.05;2.83;;;7.40;99.90;;;;;;5093214;28;20055;-67
2021/11/25 09:58:31;;;;;;;26.23;2.53;;;7.40;99.90;;;;;;5104936;28;20023;-67
2021/11/25 10:01:08;;;;;;;36.38;3.58;;;7.40;99.90;;;;;;5113430;28;20106;-67
2021/11/25 10:03:36;;;;;;;21.33;2.45;;;7.40;99.90;;;;;;5108778;28;20020;-67
2021/11/25 10:06:02;;;;;;;17.85;2.83;;;7.50;99.90;;;;;;5092831;28;20047;-67
2021/11/25 10:08:31;;;;;;;20.00;2.38;;;7.60;99.90;;;;;;5092073;28;20035;-66
2021/11/25 10:11:03;;;;;;;20.05;3.30;;;7.60;99.90;;;;;;5092773;28;20027;-67
2021/11/25 10:13:35;;;;;;;22.55;2.63;;;7.60;99.90;;;;;;5093035;28;20024;-67
2021/11/25 10:16:00;;;;;;;22.27;2.80;;;7.60;99.90;;;;;;5092190;28;20436;-67
2021/11/25 10:18:32;;;;;;;32.90;5.10;;;7.50;99.90;;;;;;5092663;28;20103;-67
2021/11/25 10:21:04;;;;;;;26.52;4.28;;;7.50;99.90;;;;;;5092682;28;20066;-67
2021/11/25 10:23:30;;;;;;;22.45;3.03;;;7.50;99.90;;;;;;5092163;28;20020;-67
2021/11/25 10:26:09;;;;;;;27.08;5.13;;;7.60;99.90;;;;;;5095295;28;20378;-67
2021/11/25 10:28:46;;;;;;;27.05;4.10;;;7.60;99.90;;;;;;5096478;28;20032;-67
2021/11/25 10:31:19;;;;;;;38.13;3.40;;;7.60;99.90;;;;;;5096152;28;20016;-67
2021/11/25 10:33:57;;;;;;;21.95;5.07;;;7.60;99.90;;;;;;5096277;28;20150;-67
2021/11/25 10:41:52;;;;;;;32.33;3.60;;;7.50;99.90;;;;;;5096033;28;20103;-67
2021/11/25 10:44:44;;;;;;;19.25;3.05;;;7.50;99.90;;;;;;5095933;28;20111;-67
2021/11/25 10:47:15;;;;;;;20.23;2.88;;;7.60;99.90;;;;;;5093592;28;20075;-67
2021/11/25 10:49:46;;;;;;;22.63;2.42;;;7.50;99.90;;;;;;5095486;28;20032;-67
2021/11/25 10:52:22;;;;;;;23.60;3.15;;;7.60;99.90;;;;;;5104924;28;20030;-67
2021/11/25 10:54:52;;;;;;;19.17;2.83;;;7.60;99.90;;;;;;5116047;28;20027;-67
2021/11/25 10:57:18;;;;;;;17.33;2.70;;;7.60;99.90;;;;;;5116343;28;20028;-67
2021/11/25 10:59:48;;;;;;;17.45;3.17;;;7.70;99.90;;;;;;5115604;28;20024;-67
2021/11/25 11:02:29;;;;;;;14.25;2.78;;;7.70;99.90;;;;;;5115922;28;20490;-67
2021/11/25 11:04:55;;;;;;;33.70;2.90;;;7.80;99.90;;;;;;5116216;28;20059;-67
2021/11/25 11:07:24;;;;;;;18.05;2.70;;;7.70;99.90;;;;;;5116056;28;20044;-67
2021/11/25 11:09:50;;;;;;;15.98;3.22;;;7.80;99.90;;;;;;5090417;22;20061;-67
2021/11/25 11:12:58;;;;;;;23.75;3.55;;;7.70;99.90;;;;;;5011802;28;20075;-67
2021/11/25 11:18:00;;;;;;;33.45;3.53;;;7.80;99.90;;;;;;5012699;28;20022;-67
2021/11/25 11:20:32;;;;;;;23.17;2.97;;;7.80;99.90;;;;;;5012245;28;20030;-67
2021/11/25 11:23:00;;;;;;;18.63;2.38;;;7.80;99.90;;;;;;5011647;28;20018;-67
2021/11/25 11:25:28;;;;;;;23.30;3.28;;;7.80;99.90;;;;;;5012124;28;20026;-67
2021/11/25 11:27:56;;;;;;;25.35;3.13;;;7.80;99.90;;;;;;5080116;28;20058;-66
2021/11/25 11:30:24;;;;;;;25.92;2.42;;;7.80;99.90;;;;;;5011961;28;20034;-67
2021/11/25 11:32:50;;;;;;;15.25;2.42;;;7.70;99.90;;;;;;5012032;28;20112;-67
2021/11/25 11:35:22;;;;;;;29.17;3.13;;;7.60;99.90;;;;;;5011494;28;20034;-67
2021/11/25 11:37:50;;;;;;;23.75;3.15;;;7.60;99.90;;;;;;5012170;28;20026;-67
2021/11/25 11:40:16;;;;;;;19.60;2.83;;;7.50;99.90;;;;;;5011762;28;20099;-67
2021/11/25 11:42:43;;;;;;;28.95;3.35;;;7.60;99.90;;;;;;5011337;28;20054;-67
2021/11/25 11:45:09;;;;;;;21.90;2.55;;;7.80;99.90;;;;;;5012106;28;20029;-67
2021/11/25 11:47:36;;;;;;;16.83;2.90;;;8.00;99.90;;;;;;5012086;28;20030;-68
2021/11/25 11:50:09;;;;;;;19.02;3.08;;;8.10;99.90;;;;;;5011922;28;20079;-67
2021/11/25 11:52:55;;;;;;;16.58;2.72;;;8.00;99.90;;;;;;5012052;28;20381;-67
2021/11/25 11:55:39;;;;;;;22.25;3.72;;;8.10;99.90;;;;;;5011415;28;20030;-68
2021/11/25 11:58:19;;;;;;;;;;;8.10;99.90;;;;;;5008592;28;20029;-68
2021/11/25 12:00:45;;;;;;;16.27;2.53;;;8.00;99.90;;;;;;5000888;28;19914;-68
2021/11/25 12:03:27;;;;;;;27.27;3.17;;;8.10;99.90;;;;;;5009487;28;20033;-67
2021/11/25 12:05:52;;;;;;;15.70;2.05;;;8.20;99.90;;;;;;4992293;28;20056;-67
2021/11/25 12:08:23;;;;;;;16.38;3.25;;;8.40;99.90;;;;;;4992131;28;20037;-67
2021/11/25 12:11:06;;;;;;;14.45;2.58;;;8.50;99.90;;;;;;5011715;28;20033;-67
2021/11/25 12:13:40;;;;;;;37.03;3.22;;;8.40;99.90;;;;;;5011379;28;20079;-67
2021/11/25 12:16:18;;;;;;;15.50;2.47;;;8.40;99.90;;;;;;4998628;28;20049;-67
2021/11/25 12:18:52;;;;;;;16.02;3.25;;;8.50;99.90;;;;;;4991698;28;20049;-67
2021/11/25 12:21:46;;;;;;;16.05;2.47;;;8.30;99.90;;;;;;4996971;28;20037;-67
2021/11/25 12:24:48;;;;;;;12.77;2.22;;;8.20;99.90;;;;;;5011057;28;20022;-67
2021/11/25 12:27:35;;;;;;;18.20;1.98;;;8.10;99.90;;;;;;5006716;28;20026;-67
2021/11/25 12:30:05;;;;;;;18.90;2.50;;;7.90;99.90;;;;;;5011529;28;20034;-67
2021/11/25 12:32:37;;;;;;;12.88;2.17;;;7.80;99.90;;;;;;5004295;28;20030;-68
2021/11/25 12:35:14;;;;;;;14.63;2.35;;;7.90;99.90;;;;;;4991805;28;20035;-68
2021/11/25 12:40:51;;;;;;;16.92;2.22;;;8.40;99.90;;;;;;4999553;28;20038;-67
2021/11/25 12:43:23;;;;;;;16.25;3.53;;;8.90;99.90;;;;;;4991206;28;20482;-67
2021/11/25 12:46:02;;;;;;;20.00;2.75;;;8.80;99.90;;;;;;4991325;28;20058;-67
2021/11/25 12:48:34;;;;;;;11.25;1.63;;;8.90;99.90;;;;;;4990349;28;20029;-68
2021/11/25 12:51:07;;;;;;;38.03;4.18;;;9.00;99.90;;;;;;4990663;28;20437;-67
2021/11/25 12:53:42;;;;;;;24.67;2.70;;;9.10;99.90;;;;;;4991347;28;20542;-68
2021/11/25 12:56:38;;;;;;;18.25;3.75;;;9.10;99.90;;;;;;4990996;28;20076;-68
2021/11/25 12:59:04;;;;;;;14.30;2.28;;;9.10;99.90;;;;;;4993343;28;20038;-67
2021/11/25 13:01:37;;;;;;;19.95;2.67;;;9.30;99.90;;;;;;4991194;28;20025;-67